sensor_id;sensor_type;location;lat;lon;timestamp;temperature;humidity
31783;DHT22;18351;47.560;9.708;2023-03-14T00:00:34;11.80;99.90
31783;DHT22;18351;47.560;9.708;2023-03-14T00:02:59;11.40;99.90
31783;DHT22;18351;47.560;9.708;2023-03-14T00:05:25;10.90;99.90
31783;DHT22;18351;47.560;9.708;2023-03-14T00:07:51;10.80;99.90
31783;DHT22;18351;47.560;9.708;2023-03-14T00:10:16;10.70;99.90
31783;DHT22;18351;47.560;9.708;2023-03-14T00:12:43;10.60;99.90
31783;DHT22;18351;47.560;9.708;2023-03-14T00:15:10;10.50;99.90
31783;DHT22;18351;47.560;9.708;2023-03-14T00:17:36;10.50;99.90
31783;DHT22;18351;47.560;9.708;2023-03-14T00:20:04;10.40;99.90
31783;DHT22;18351;47.560;9.708;2023-03-14T00:22:34;10.40;99.90
31783;DHT22;18351;47.560;9.708;2023-03-14T00:24:59;10.30;99.90
31783;DHT22;18351;47.560;9.708;2023-03-14T00:27:25;10.20;99.90
31783;DHT22;18351;47.560;9.708;2023-03-14T00:29:51;10.20;99.90
31783;DHT22;18351;47.560;9.708;2023-03-14T00:32:16;10.20;99.90
31783;DHT22;18351;47.560;9.708;2023-03-14T00:34:42;10.10;99.90
31783;DHT22;18351;47.560;9.708;2023-03-14T00:37:08;10.00;99.90
31783;DHT22;18351;47.560;9.708;2023-03-14T00:39:33;9.80;99.90
31783;DHT22;18351;47.560;9.708;2023-03-14T00:41:59;9.70;99.90
31783;DHT22;18351;47.560;9.708;2023-03-14T00:44:24;9.60;99.90
31783;DHT22;18351;47.560;9.708;2023-03-14T00:46:50;9.50;99.90
31783;DHT22;18351;47.560;9.708;2023-03-14T00:49:15;9.50;99.90
31783;DHT22;18351;47.560;9.708;2023-03-14T00:51:41;9.50;99.90
31783;DHT22;18351;47.560;9.708;2023-03-14T00:54:07;9.40;99.90
31783;DHT22;18351;47.560;9.708;2023-03-14T00:56:32;9.40;99.90
31783;DHT22;18351;47.560;9.708;2023-03-14T00:58:58;9.40;99.90
31783;DHT22;18351;47.560;9.708;2023-03-14T01:01:24;9.30;99.90
31783;DHT22;18351;47.560;9.708;2023-03-14T01:03:54;9.30;99.90
31783;DHT22;18351;47.560;9.708;2023-03-14T01:06:23;9.40;99.90
31783;DHT22;18351;47.560;9.708;2023-03-14T01:08:50;9.40;99.90
31783;DHT22;18351;47.560;9.708;2023-03-14T01:11:28;9.40;99.90
31783;DHT22;18351;47.560;9.708;2023-03-14T01:13:55;9.50;99.90
31783;DHT22;18351;47.560;9.708;2023-03-14T01:16:22;9.40;99.90
31783;DHT22;18351;47.560;9.708;2023-03-14T01:18:48;9.30;99.90
31783;DHT22;18351;47.560;9.708;2023-03-14T01:21:15;9.30;99.90
31783;DHT22;18351;47.560;9.708;2023-03-14T01:23:41;9.20;99.90
31783;DHT22;18351;47.560;9.708;2023-03-14T01:26:12;9.30;99.90
31783;DHT22;18351;47.560;9.708;2023-03-14T01:28:38;9.40;99.90
31783;DHT22;18351;47.560;9.708;2023-03-14T01:31:09;9.40;99.90
31783;DHT22;18351;47.560;9.708;2023-03-14T01:33:35;9.40;99.90
31783;DHT22;18351;47.560;9.708;2023-03-14T01:36:00;9.40;99.90
31783;DHT22;18351;47.560;9.708;2023-03-14T01:38:29;9.30;99.90
31783;DHT22;18351;47.560;9.708;2023-03-14T01:40:54;9.30;99.90
31783;DHT22;18351;47.560;9.708;2023-03-14T01:43:20;9.30;99.90
31783;DHT22;18351;47.560;9.708;2023-03-14T01:46:14;9.20;99.90
31783;DHT22;18351;47.560;9.708;2023-03-14T01:51:14;9.20;99.90
31783;DHT22;18351;47.560;9.708;2023-03-14T01:53:42;9.20;99.90
31783;DHT22;18351;47.560;9.708;2023-03-14T01:56:09;9.10;99.90
31783;DHT22;18351;47.560;9.708;2023-03-14T01:58:37;9.10;99.90
31783;DHT22;18351;47.560;9.708;2023-03-14T02:01:05;9.10;99.90
31783;DHT22;18351;47.560;9.708;2023-03-14T02:03:35;9.10;99.90
31783;DHT22;18351;47.560;9.708;2023-03-14T02:06:06;9.00;99.90
31783;DHT22;18351;47.560;9.708;2023-03-14T02:08:33;9.00;99.90
31783;DHT22;18351;47.560;9.708;2023-03-14T02:11:00;9.10;99.90
31783;DHT22;18351;47.560;9.708;2023-03-14T02:13:26;9.10;99.90
31783;DHT22;18351;47.560;9.708;2023-03-14T02:15:52;9.10;99.90
31783;DHT22;18351;47.560;9.708;2023-03-14T02:18:18;9.20;99.90
31783;DHT22;18351;47.560;9.708;2023-03-14T02:23:15;9.30;99.90
31783;DHT22;18351;47.560;9.708;2023-03-14T02:25:53;9.30;99.90
31783;DHT22;18351;47.560;9.708;2023-03-14T02:28:20;9.30;99.90
31783;DHT22;18351;47.560;9.708;2023-03-14T02:30:46;9.30;99.90
31783;DHT22;18351;47.560;9.708;2023-03-14T02:33:14;9.40;99.90
31783;DHT22;18351;47.560;9.708;2023-03-14T02:35:43;9.40;99.90
31783;DHT22;18351;47.560;9.708;2023-03-14T02:38:24;9.40;99.90
31783;DHT22;18351;47.560;9.708;2023-03-14T02:40:51;9.40;99.90
31783;DHT22;18351;47.560;9.708;2023-03-14T02:43:17;9.40;99.90
31783;DHT22;18351;47.560;9.708;2023-03-14T02:45:45;9.30;99.90
31783;DHT22;18351;47.560;9.708;2023-03-14T02:48:17;9.30;99.90
31783;DHT22;18351;47.560;9.708;2023-03-14T02:50:48;9.40;99.90
31783;DHT22;18351;47.560;9.708;2023-03-14T02:53:18;9.40;99.90
31783;DHT22;18351;47.560;9.708;2023-03-14T02:55:46;9.40;99.90
31783;DHT22;18351;47.560;9.708;2023-03-14T02:58:12;9.40;99.90
31783;DHT22;18351;47.560;9.708;2023-03-14T03:00:38;9.40;99.90
31783;DHT22;18351;47.560;9.708;2023-03-14T03:03:03;9.40;99.90
31783;DHT22;18351;47.560;9.708;2023-03-14T03:05:31;9.40;99.90
31783;DHT22;18351;47.560;9.708;2023-03-14T03:07:56;9.30;99.90
31783;DHT22;18351;47.560;9.708;2023-03-14T03:10:22;9.20;99.90
31783;DHT22;18351;47.560;9.708;2023-03-14T03:12:48;9.20;99.90
31783;DHT22;18351;47.560;9.708;2023-03-14T03:15:13;9.10;99.90
31783;DHT22;18351;47.560;9.708;2023-03-14T03:17:39;9.10;99.90
31783;DHT22;18351;47.560;9.708;2023-03-14T03:20:05;9.10;99.90
31783;DHT22;18351;47.560;9.708;2023-03-14T03:22:34;9.00;99.90
31783;DHT22;18351;47.560;9.708;2023-03-14T03:24:59;9.10;99.90
31783;DHT22;18351;47.560;9.708;2023-03-14T03:27:25;9.00;99.90
31783;DHT22;18351;47.560;9.708;2023-03-14T03:29:50;9.10;99.90
31783;DHT22;18351;47.560;9.708;2023-03-14T03:32:16;9.10;99.90
31783;DHT22;18351;47.560;9.708;2023-03-14T03:34:42;9.10;99.90
31783;DHT22;18351;47.560;9.708;2023-03-14T03:37:07;9.10;99.90
31783;DHT22;18351;47.560;9.708;2023-03-14T03:39:33;9.10;99.90
31783;DHT22;18351;47.560;9.708;2023-03-14T03:41:59;9.10;99.90
31783;DHT22;18351;47.560;9.708;2023-03-14T03:44:24;9.10;99.90
31783;DHT22;18351;47.560;9.708;2023-03-14T03:46:50;9.10;99.90
31783;DHT22;18351;47.560;9.708;2023-03-14T03:49:15;9.10;99.90
31783;DHT22;18351;47.560;9.708;2023-03-14T03:51:41;9.10;99.90
31783;DHT22;18351;47.560;9.708;2023-03-14T03:54:07;9.10;99.90
31783;DHT22;18351;47.560;9.708;2023-03-14T03:56:32;9.00;99.90
31783;DHT22;18351;47.560;9.708;2023-03-14T03:58:58;9.10;99.90
31783;DHT22;18351;47.560;9.708;2023-03-14T04:01:24;9.10;99.90
31783;DHT22;18351;47.560;9.708;2023-03-14T04:03:49;9.10;99.90
31783;DHT22;18351;47.560;9.708;2023-03-14T04:06:15;9.10;99.90
31783;DHT22;18351;47.560;9.708;2023-03-14T04:08:40;9.00;99.90
31783;DHT22;18351;47.560;9.708;2023-03-14T04:11:06;9.10;99.90
31783;DHT22;18351;47.560;9.708;2023-03-14T04:13:32;9.10;99.90
31783;DHT22;18351;47.560;9.708;2023-03-14T04:15:58;9.00;99.90
31783;DHT22;18351;47.560;9.708;2023-03-14T04:18:23;9.00;99.90
31783;DHT22;18351;47.560;9.708;2023-03-14T04:20:54;9.10;99.90
31783;DHT22;18351;47.560;9.708;2023-03-14T04:23:20;9.10;99.90
31783;DHT22;18351;47.560;9.708;2023-03-14T04:25:45;9.10;99.90
31783;DHT22;18351;47.560;9.708;2023-03-14T04:28:11;8.90;99.90
31783;DHT22;18351;47.560;9.708;2023-03-14T04:30:36;9.00;99.90
31783;DHT22;18351;47.560;9.708;2023-03-14T04:33:02;9.00;99.90
31783;DHT22;18351;47.560;9.708;2023-03-14T04:35:30;9.00;99.90
31783;DHT22;18351;47.560;9.708;2023-03-14T04:37:56;9.00;99.90
31783;DHT22;18351;47.560;9.708;2023-03-14T04:40:21;9.00;99.90
31783;DHT22;18351;47.560;9.708;2023-03-14T04:42:47;9.00;99.90
31783;DHT22;18351;47.560;9.708;2023-03-14T04:45:12;9.00;99.90
31783;DHT22;18351;47.560;9.708;2023-03-14T04:47:38;9.00;99.90
31783;DHT22;18351;47.560;9.708;2023-03-14T04:50:04;8.90;99.90
31783;DHT22;18351;47.560;9.708;2023-03-14T04:52:29;8.90;99.90
31783;DHT22;18351;47.560;9.708;2023-03-14T04:54:55;8.90;99.90
31783;DHT22;18351;47.560;9.708;2023-03-14T04:57:20;8.90;99.90
31783;DHT22;18351;47.560;9.708;2023-03-14T04:59:46;9.00;99.90
31783;DHT22;18351;47.560;9.708;2023-03-14T05:02:12;9.00;99.90
31783;DHT22;18351;47.560;9.708;2023-03-14T05:04:37;9.00;99.90
31783;DHT22;18351;47.560;9.708;2023-03-14T05:07:03;9.00;99.90
31783;DHT22;18351;47.560;9.708;2023-03-14T05:09:28;9.00;99.90
31783;DHT22;18351;47.560;9.708;2023-03-14T05:11:54;9.00;99.90
31783;DHT22;18351;47.560;9.708;2023-03-14T05:14:19;9.00;99.90
31783;DHT22;18351;47.560;9.708;2023-03-14T05:16:45;9.00;99.90
31783;DHT22;18351;47.560;9.708;2023-03-14T05:19:11;8.90;99.90
31783;DHT22;18351;47.560;9.708;2023-03-14T05:21:36;8.90;99.90
31783;DHT22;18351;47.560;9.708;2023-03-14T05:24:02;8.90;99.90
31783;DHT22;18351;47.560;9.708;2023-03-14T05:26:28;8.80;99.90
31783;DHT22;18351;47.560;9.708;2023-03-14T05:28:54;8.80;99.90
31783;DHT22;18351;47.560;9.708;2023-03-14T05:31:19;8.80;99.90
31783;DHT22;18351;47.560;9.708;2023-03-14T05:33:45;8.80;99.90
31783;DHT22;18351;47.560;9.708;2023-03-14T05:36:11;8.80;99.90
31783;DHT22;18351;47.560;9.708;2023-03-14T05:38:36;8.80;99.90
31783;DHT22;18351;47.560;9.708;2023-03-14T05:41:02;8.80;99.90
31783;DHT22;18351;47.560;9.708;2023-03-14T05:43:28;8.90;99.90
31783;DHT22;18351;47.560;9.708;2023-03-14T05:45:53;8.80;99.90
31783;DHT22;18351;47.560;9.708;2023-03-14T05:48:19;8.80;99.90
31783;DHT22;18351;47.560;9.708;2023-03-14T05:50:44;8.80;99.90
31783;DHT22;18351;47.560;9.708;2023-03-14T05:53:10;8.80;99.90
31783;DHT22;18351;47.560;9.708;2023-03-14T05:55:35;8.80;99.90
31783;DHT22;18351;47.560;9.708;2023-03-14T05:58:01;8.80;99.90
31783;DHT22;18351;47.560;9.708;2023-03-14T06:00:26;8.80;99.90
31783;DHT22;18351;47.560;9.708;2023-03-14T06:02:52;8.80;99.90
31783;DHT22;18351;47.560;9.708;2023-03-14T06:05:18;8.70;99.90
31783;DHT22;18351;47.560;9.708;2023-03-14T06:07:43;8.70;99.90
31783;DHT22;18351;47.560;9.708;2023-03-14T06:10:09;8.70;99.90
31783;DHT22;18351;47.560;9.708;2023-03-14T06:12:35;8.70;99.90
31783;DHT22;18351;47.560;9.708;2023-03-14T06:15:00;8.70;99.90
31783;DHT22;18351;47.560;9.708;2023-03-14T06:17:26;8.70;99.90
31783;DHT22;18351;47.560;9.708;2023-03-14T06:19:51;8.70;99.90
31783;DHT22;18351;47.560;9.708;2023-03-14T06:22:17;8.70;99.90
31783;DHT22;18351;47.560;9.708;2023-03-14T06:24:43;8.70;99.90
31783;DHT22;18351;47.560;9.708;2023-03-14T06:27:08;8.70;99.90
31783;DHT22;18351;47.560;9.708;2023-03-14T06:29:34;8.70;99.90
31783;DHT22;18351;47.560;9.708;2023-03-14T06:31:59;8.70;99.90
31783;DHT22;18351;47.560;9.708;2023-03-14T06:34:25;8.70;99.90
31783;DHT22;18351;47.560;9.708;2023-03-14T06:36:50;8.70;99.90
31783;DHT22;18351;47.560;9.708;2023-03-14T06:39:16;8.70;99.90
31783;DHT22;18351;47.560;9.708;2023-03-14T06:41:41;8.80;99.90
31783;DHT22;18351;47.560;9.708;2023-03-14T06:44:07;8.70;99.90
31783;DHT22;18351;47.560;9.708;2023-03-14T06:46:33;8.80;99.90
31783;DHT22;18351;47.560;9.708;2023-03-14T06:48:58;8.70;99.90
31783;DHT22;18351;47.560;9.708;2023-03-14T06:51:24;8.80;99.90
31783;DHT22;18351;47.560;9.708;2023-03-14T06:53:49;8.80;99.90
31783;DHT22;18351;47.560;9.708;2023-03-14T06:56:15;8.90;99.90
31783;DHT22;18351;47.560;9.708;2023-03-14T06:58:40;8.90;99.90
31783;DHT22;18351;47.560;9.708;2023-03-14T07:01:10;8.90;99.90
31783;DHT22;18351;47.560;9.708;2023-03-14T07:03:41;8.90;99.90
31783;DHT22;18351;47.560;9.708;2023-03-14T07:06:06;9.00;99.90
31783;DHT22;18351;47.560;9.708;2023-03-14T07:08:32;9.00;99.90
31783;DHT22;18351;47.560;9.708;2023-03-14T07:10:57;9.10;99.90
31783;DHT22;18351;47.560;9.708;2023-03-14T07:13:23;9.10;99.90
31783;DHT22;18351;47.560;9.708;2023-03-14T07:15:48;9.20;99.90
31783;DHT22;18351;47.560;9.708;2023-03-14T07:18:14;9.30;99.90
31783;DHT22;18351;47.560;9.708;2023-03-14T07:20:39;9.40;99.90
31783;DHT22;18351;47.560;9.708;2023-03-14T07:23:05;9.60;99.90
31783;DHT22;18351;47.560;9.708;2023-03-14T07:25:31;9.50;99.90
31783;DHT22;18351;47.560;9.708;2023-03-14T07:27:57;9.60;99.90
31783;DHT22;18351;47.560;9.708;2023-03-14T07:30:22;9.60;99.90
31783;DHT22;18351;47.560;9.708;2023-03-14T07:32:48;9.70;99.90
31783;DHT22;18351;47.560;9.708;2023-03-14T07:35:13;9.80;99.90
31783;DHT22;18351;47.560;9.708;2023-03-14T07:37:39;9.90;99.90
31783;DHT22;18351;47.560;9.708;2023-03-14T07:40:05;10.00;99.90
31783;DHT22;18351;47.560;9.708;2023-03-14T07:42:32;10.00;99.90
31783;DHT22;18351;47.560;9.708;2023-03-14T07:44:57;10.10;99.90
31783;DHT22;18351;47.560;9.708;2023-03-14T07:47:23;10.10;99.90
31783;DHT22;18351;47.560;9.708;2023-03-14T07:49:48;10.20;99.90
31783;DHT22;18351;47.560;9.708;2023-03-14T07:52:14;10.30;99.90
31783;DHT22;18351;47.560;9.708;2023-03-14T07:54:39;10.40;99.90
31783;DHT22;18351;47.560;9.708;2023-03-14T07:57:05;10.50;99.90
31783;DHT22;18351;47.560;9.708;2023-03-14T07:59:31;10.60;99.90
31783;DHT22;18351;47.560;9.708;2023-03-14T08:01:56;10.70;99.90
31783;DHT22;18351;47.560;9.708;2023-03-14T08:04:22;10.60;99.90
31783;DHT22;18351;47.560;9.708;2023-03-14T08:06:47;10.70;99.90
31783;DHT22;18351;47.560;9.708;2023-03-14T08:09:13;10.70;99.90
31783;DHT22;18351;47.560;9.708;2023-03-14T08:11:39;10.80;99.90
31783;DHT22;18351;47.560;9.708;2023-03-14T08:14:04;10.90;99.90
31783;DHT22;18351;47.560;9.708;2023-03-14T08:16:30;10.90;99.90
31783;DHT22;18351;47.560;9.708;2023-03-14T08:18:56;10.90;99.90
31783;DHT22;18351;47.560;9.708;2023-03-14T08:21:22;10.90;99.90
31783;DHT22;18351;47.560;9.708;2023-03-14T08:23:48;11.00;99.90
31783;DHT22;18351;47.560;9.708;2023-03-14T08:26:14;11.10;99.90
31783;DHT22;18351;47.560;9.708;2023-03-14T08:28:39;11.20;99.90
31783;DHT22;18351;47.560;9.708;2023-03-14T08:31:05;11.40;99.90
31783;DHT22;18351;47.560;9.708;2023-03-14T08:33:30;11.40;99.90
31783;DHT22;18351;47.560;9.708;2023-03-14T08:35:58;11.50;99.90
31783;DHT22;18351;47.560;9.708;2023-03-14T08:38:24;11.50;99.90
31783;DHT22;18351;47.560;9.708;2023-03-14T08:40:55;11.50;99.90
31783;DHT22;18351;47.560;9.708;2023-03-14T08:43:22;11.50;99.90
31783;DHT22;18351;47.560;9.708;2023-03-14T08:45:47;11.50;99.90
31783;DHT22;18351;47.560;9.708;2023-03-14T08:48:13;11.50;99.90
31783;DHT22;18351;47.560;9.708;2023-03-14T08:50:38;11.70;99.90
31783;DHT22;18351;47.560;9.708;2023-03-14T08:53:04;11.90;99.90
31783;DHT22;18351;47.560;9.708;2023-03-14T08:55:29;11.90;99.90
31783;DHT22;18351;47.560;9.708;2023-03-14T08:57:55;12.00;99.90
31783;DHT22;18351;47.560;9.708;2023-03-14T09:00:21;12.20;99.90
31783;DHT22;18351;47.560;9.708;2023-03-14T09:02:46;12.20;99.90
31783;DHT22;18351;47.560;9.708;2023-03-14T09:05:12;12.40;99.90
31783;DHT22;18351;47.560;9.708;2023-03-14T09:07:38;12.60;99.90
31783;DHT22;18351;47.560;9.708;2023-03-14T09:10:04;12.80;99.90
31783;DHT22;18351;47.560;9.708;2023-03-14T09:12:30;12.80;99.90
31783;DHT22;18351;47.560;9.708;2023-03-14T09:14:55;13.00;99.90
31783;DHT22;18351;47.560;9.708;2023-03-14T09:17:21;13.00;99.90
31783;DHT22;18351;47.560;9.708;2023-03-14T09:19:47;13.20;99.90
31783;DHT22;18351;47.560;9.708;2023-03-14T09:22:12;13.20;99.90
31783;DHT22;18351;47.560;9.708;2023-03-14T09:24:38;13.40;99.90
31783;DHT22;18351;47.560;9.708;2023-03-14T09:27:05;13.50;99.90
31783;DHT22;18351;47.560;9.708;2023-03-14T09:29:30;13.50;99.90
31783;DHT22;18351;47.560;9.708;2023-03-14T09:31:57;13.70;99.90
31783;DHT22;18351;47.560;9.708;2023-03-14T09:34:23;13.60;99.90
31783;DHT22;18351;47.560;9.708;2023-03-14T09:36:49;13.60;99.90
31783;DHT22;18351;47.560;9.708;2023-03-14T09:39:14;13.60;99.90
31783;DHT22;18351;47.560;9.708;2023-03-14T09:41:45;13.60;99.90
31783;DHT22;18351;47.560;9.708;2023-03-14T09:44:18;13.50;99.90
31783;DHT22;18351;47.560;9.708;2023-03-14T09:46:48;13.50;99.90
31783;DHT22;18351;47.560;9.708;2023-03-14T09:51:50;13.50;99.90
31783;DHT22;18351;47.560;9.708;2023-03-14T09:54:37;13.60;99.90
31783;DHT22;18351;47.560;9.708;2023-03-14T09:57:05;13.60;99.90
31783;DHT22;18351;47.560;9.708;2023-03-14T09:59:31;13.70;99.90
31783;DHT22;18351;47.560;9.708;2023-03-14T10:02:22;13.60;99.90
31783;DHT22;18351;47.560;9.708;2023-03-14T10:04:49;13.60;99.90
31783;DHT22;18351;47.560;9.708;2023-03-14T10:07:18;13.60;99.90
31783;DHT22;18351;47.560;9.708;2023-03-14T10:09:50;13.50;99.90
31783;DHT22;18351;47.560;9.708;2023-03-14T10:12:18;13.50;99.90
31783;DHT22;18351;47.560;9.708;2023-03-14T10:14:51;13.40;99.90
31783;DHT22;18351;47.560;9.708;2023-03-14T10:17:19;13.40;99.90
31783;DHT22;18351;47.560;9.708;2023-03-14T10:19:56;13.30;99.90
31783;DHT22;18351;47.560;9.708;2023-03-14T10:22:40;13.30;99.90
31783;DHT22;18351;47.560;9.708;2023-03-14T10:25:09;13.30;99.90
31783;DHT22;18351;47.560;9.708;2023-03-14T10:27:48;13.50;99.90
31783;DHT22;18351;47.560;9.708;2023-03-14T10:30:29;13.50;99.90
31783;DHT22;18351;47.560;9.708;2023-03-14T10:32:55;13.60;99.90
31783;DHT22;18351;47.560;9.708;2023-03-14T10:35:23;13.80;99.90
31783;DHT22;18351;47.560;9.708;2023-03-14T10:37:56;13.90;99.90
31783;DHT22;18351;47.560;9.708;2023-03-14T10:40:30;13.90;99.90
31783;DHT22;18351;47.560;9.708;2023-03-14T10:42:58;13.90;99.80
31783;DHT22;18351;47.560;9.708;2023-03-14T10:45:40;13.80;99.80
31783;DHT22;18351;47.560;9.708;2023-03-14T10:48:36;13.70;99.90
31783;DHT22;18351;47.560;9.708;2023-03-14T10:53:45;13.40;99.90
31783;DHT22;18351;47.560;9.708;2023-03-14T10:56:17;13.20;99.90
31783;DHT22;18351;47.560;9.708;2023-03-14T10:58:45;13.00;99.90
31783;DHT22;18351;47.560;9.708;2023-03-14T11:07:03;12.80;99.90
31783;DHT22;18351;47.560;9.708;2023-03-14T11:14:55;12.70;99.90
31783;DHT22;18351;47.560;9.708;2023-03-14T11:20:35;12.50;99.90
31783;DHT22;18351;47.560;9.708;2023-03-14T11:23:08;12.50;99.90
31783;DHT22;18351;47.560;9.708;2023-03-14T11:28:36;12.30;99.90
31783;DHT22;18351;47.560;9.708;2023-03-14T11:31:16;12.20;99.90
31783;DHT22;18351;47.560;9.708;2023-03-14T11:33:49;12.10;99.90
31783;DHT22;18351;47.560;9.708;2023-03-14T11:36:22;12.00;99.90
31783;DHT22;18351;47.560;9.708;2023-03-14T11:38:56;11.80;99.90
31783;DHT22;18351;47.560;9.708;2023-03-14T11:43:57;11.40;99.90
31783;DHT22;18351;47.560;9.708;2023-03-14T11:46:29;11.20;99.90
31783;DHT22;18351;47.560;9.708;2023-03-14T11:51:32;11.20;99.90
31783;DHT22;18351;47.560;9.708;2023-03-14T11:56:55;11.10;99.90
31783;DHT22;18351;47.560;9.708;2023-03-14T12:00:02;11.10;99.90
31783;DHT22;18351;47.560;9.708;2023-03-14T12:02:54;11.00;99.90
31783;DHT22;18351;47.560;9.708;2023-03-14T12:08:37;10.90;99.90
31783;DHT22;18351;47.560;9.708;2023-03-14T12:14:01;10.70;99.90
31783;DHT22;18351;47.560;9.708;2023-03-14T12:16:37;10.60;99.90
31783;DHT22;18351;47.560;9.708;2023-03-14T12:19:26;10.60;99.90
31783;DHT22;18351;47.560;9.708;2023-03-14T12:30:40;10.60;99.90
31783;DHT22;18351;47.560;9.708;2023-03-14T12:35:48;10.50;99.90
31783;DHT22;18351;47.560;9.708;2023-03-14T12:46:58;10.10;99.90
31783;DHT22;18351;47.560;9.708;2023-03-14T12:49:31;9.90;99.90
31783;DHT22;18351;47.560;9.708;2023-03-14T12:52:02;9.80;99.90
31783;DHT22;18351;47.560;9.708;2023-03-14T12:57:36;9.50;99.90
31783;DHT22;18351;47.560;9.708;2023-03-14T13:00:18;9.40;99.90
31783;DHT22;18351;47.560;9.708;2023-03-14T13:02:45;9.30;99.90
31783;DHT22;18351;47.560;9.708;2023-03-14T13:05:21;9.20;99.90
31783;DHT22;18351;47.560;9.708;2023-03-14T13:10:18;9.20;99.90
31783;DHT22;18351;47.560;9.708;2023-03-14T13:13:37;9.10;99.90
31783;DHT22;18351;47.560;9.708;2023-03-14T13:15:45;9.10;99.90
31783;DHT22;18351;47.560;9.708;2023-03-14T13:20:55;9.00;99.90
31783;DHT22;18351;47.560;9.708;2023-03-14T13:23:29;9.10;99.90
31783;DHT22;18351;47.560;9.708;2023-03-14T13:25:56;9.10;99.90
31783;DHT22;18351;47.560;9.708;2023-03-14T13:28:22;9.20;99.90
31783;DHT22;18351;47.560;9.708;2023-03-14T13:30:49;9.30;99.90
31783;DHT22;18351;47.560;9.708;2023-03-14T13:33:18;9.30;99.90
31783;DHT22;18351;47.560;9.708;2023-03-14T13:36:01;9.50;99.90
31783;DHT22;18351;47.560;9.708;2023-03-14T13:38:33;9.80;99.90
31783;DHT22;18351;47.560;9.708;2023-03-14T13:41:00;10.00;99.90
31783;DHT22;18351;47.560;9.708;2023-03-14T13:43:35;10.20;99.90
31783;DHT22;18351;47.560;9.708;2023-03-14T13:48:31;10.20;99.90
31783;DHT22;18351;47.560;9.708;2023-03-14T13:51:05;10.10;99.90
31783;DHT22;18351;47.560;9.708;2023-03-14T13:53:32;10.10;99.90
31783;DHT22;18351;47.560;9.708;2023-03-14T13:56:09;10.00;99.90
31783;DHT22;18351;47.560;9.708;2023-03-14T13:58:37;9.90;99.90
31783;DHT22;18351;47.560;9.708;2023-03-14T14:01:13;9.90;99.90
31783;DHT22;18351;47.560;9.708;2023-03-14T14:03:41;9.90;99.90
31783;DHT22;18351;47.560;9.708;2023-03-14T14:06:22;9.90;99.90
31783;DHT22;18351;47.560;9.708;2023-03-14T14:08:48;9.90;99.90
31783;DHT22;18351;47.560;9.708;2023-03-14T14:11:30;10.00;99.90
31783;DHT22;18351;47.560;9.708;2023-03-14T14:13:58;9.90;99.90
31783;DHT22;18351;47.560;9.708;2023-03-14T14:16:25;9.90;99.90
31783;DHT22;18351;47.560;9.708;2023-03-14T14:18:53;9.80;99.90
31783;DHT22;18351;47.560;9.708;2023-03-14T14:21:20;9.80;99.90
31783;DHT22;18351;47.560;9.708;2023-03-14T14:23:46;9.80;99.90
31783;DHT22;18351;47.560;9.708;2023-03-14T14:26:17;9.90;99.90
31783;DHT22;18351;47.560;9.708;2023-03-14T14:28:43;10.00;99.90
31783;DHT22;18351;47.560;9.708;2023-03-14T14:38:52;9.50;99.90
31783;DHT22;18351;47.560;9.708;2023-03-14T14:41:18;9.40;99.90
31783;DHT22;18351;47.560;9.708;2023-03-14T14:43:43;9.40;99.90
31783;DHT22;18351;47.560;9.708;2023-03-14T14:46:13;9.30;99.90
31783;DHT22;18351;47.560;9.708;2023-03-14T14:48:41;9.40;99.90
31783;DHT22;18351;47.560;9.708;2023-03-14T14:51:07;9.40;99.90
31783;DHT22;18351;47.560;9.708;2023-03-14T14:53:41;9.40;99.90
31783;DHT22;18351;47.560;9.708;2023-03-14T14:56:18;9.70;99.90
31783;DHT22;18351;47.560;9.708;2023-03-14T14:58:47;10.00;99.90
31783;DHT22;18351;47.560;9.708;2023-03-14T15:03:44;10.00;99.90
31783;DHT22;18351;47.560;9.708;2023-03-14T15:06:12;9.80;99.90
31783;DHT22;18351;47.560;9.708;2023-03-14T15:08:38;9.70;99.90
31783;DHT22;18351;47.560;9.708;2023-03-14T15:11:04;9.70;99.90
31783;DHT22;18351;47.560;9.708;2023-03-14T15:13:30;9.80;99.90
31783;DHT22;18351;47.560;9.708;2023-03-14T15:15:55;9.70;99.90
31783;DHT22;18351;47.560;9.708;2023-03-14T15:18:23;9.70;99.90
31783;DHT22;18351;47.560;9.708;2023-03-14T15:20:50;9.70;99.90
31783;DHT22;18351;47.560;9.708;2023-03-14T15:23:18;9.70;99.40
31783;DHT22;18351;47.560;9.708;2023-03-14T15:25:44;9.60;99.00
31783;DHT22;18351;47.560;9.708;2023-03-14T15:28:18;9.70;99.50
31783;DHT22;18351;47.560;9.708;2023-03-14T15:30:46;9.60;98.90
31783;DHT22;18351;47.560;9.708;2023-03-14T15:33:12;9.50;99.90
31783;DHT22;18351;47.560;9.708;2023-03-14T15:35:38;9.40;98.30
31783;DHT22;18351;47.560;9.708;2023-03-14T15:38:04;9.30;99.00
31783;DHT22;18351;47.560;9.708;2023-03-14T15:40:30;9.20;98.80
31783;DHT22;18351;47.560;9.708;2023-03-14T15:42:56;9.10;99.90
31783;DHT22;18351;47.560;9.708;2023-03-14T15:45:21;9.10;99.90
31783;DHT22;18351;47.560;9.708;2023-03-14T15:47:47;9.20;99.90
31783;DHT22;18351;47.560;9.708;2023-03-14T15:50:13;9.20;99.90
31783;DHT22;18351;47.560;9.708;2023-03-14T15:52:38;9.30;99.90
31783;DHT22;18351;47.560;9.708;2023-03-14T15:55:04;9.30;99.90
31783;DHT22;18351;47.560;9.708;2023-03-14T15:57:30;9.40;99.90
31783;DHT22;18351;47.560;9.708;2023-03-14T15:59:55;9.50;99.90
31783;DHT22;18351;47.560;9.708;2023-03-14T16:02:21;9.50;99.90
31783;DHT22;18351;47.560;9.708;2023-03-14T16:04:47;9.50;99.90
31783;DHT22;18351;47.560;9.708;2023-03-14T16:07:12;9.40;99.90
31783;DHT22;18351;47.560;9.708;2023-03-14T16:09:38;9.40;99.90
31783;DHT22;18351;47.560;9.708;2023-03-14T16:12:03;9.40;99.90
31783;DHT22;18351;47.560;9.708;2023-03-14T16:14:33;9.40;99.90
31783;DHT22;18351;47.560;9.708;2023-03-14T16:16:58;9.40;99.90
31783;DHT22;18351;47.560;9.708;2023-03-14T16:19:27;9.30;99.90
31783;DHT22;18351;47.560;9.708;2023-03-14T16:21:53;9.30;99.90
31783;DHT22;18351;47.560;9.708;2023-03-14T16:24:19;9.20;99.90
31783;DHT22;18351;47.560;9.708;2023-03-14T16:26:45;9.20;99.90
31783;DHT22;18351;47.560;9.708;2023-03-14T16:29:12;9.20;99.90
31783;DHT22;18351;47.560;9.708;2023-03-14T16:31:37;9.20;99.90
31783;DHT22;18351;47.560;9.708;2023-03-14T16:34:10;9.10;99.90
31783;DHT22;18351;47.560;9.708;2023-03-14T16:36:36;9.20;99.90
31783;DHT22;18351;47.560;9.708;2023-03-14T16:39:02;9.20;99.90
31783;DHT22;18351;47.560;9.708;2023-03-14T16:41:28;9.30;99.90
31783;DHT22;18351;47.560;9.708;2023-03-14T16:43:57;9.30;99.90
31783;DHT22;18351;47.560;9.708;2023-03-14T16:46:22;9.40;99.90
31783;DHT22;18351;47.560;9.708;2023-03-14T16:48:50;9.40;99.90
31783;DHT22;18351;47.560;9.708;2023-03-14T16:51:16;9.40;99.90
31783;DHT22;18351;47.560;9.708;2023-03-14T16:53:42;9.50;99.90
31783;DHT22;18351;47.560;9.708;2023-03-14T16:56:08;9.40;99.90
31783;DHT22;18351;47.560;9.708;2023-03-14T16:58:35;9.40;99.90
31783;DHT22;18351;47.560;9.708;2023-03-14T17:01:09;9.30;99.90
31783;DHT22;18351;47.560;9.708;2023-03-14T17:03:41;9.30;99.90
31783;DHT22;18351;47.560;9.708;2023-03-14T17:06:09;9.20;99.90